Time;durP1;ratioP1;P1;durP2;ratioP2;P2;SDS_P1;SDS_P2;PMS_P1;PMS_P2;Temp;Humidity;BMP_temperature;BMP_pressure;BME280_temperature;BME280_humidity;BME280_pressure;Samples;Min_cycle;Max_cycle;Signal;HPM_P1;HPM_P2
2022/11/26 00:00:30;;;;;;;16.03;5.40;;;7.70;99.90;;;;;;5051646;28;20417;-79
2022/11/26 00:02:56;;;;;;;18.87;6.10;;;7.60;99.90;;;;;;5034044;28;20954;-77
2022/11/26 00:05:22;;;;;;;13.33;6.10;;;7.50;99.90;;;;;;5033925;28;20636;-78
2022/11/26 00:07:54;;;;;;;13.23;5.93;;;7.60;99.90;;;;;;5051904;28;20182;-77
2022/11/26 00:10:23;;;;;;;12.70;5.87;;;7.60;99.90;;;;;;5051952;28;20393;-78
2022/11/26 00:12:49;;;;;;;20.77;6.13;;;7.50;99.90;;;;;;5017319;28;20474;-79
2022/11/26 00:15:19;;;;;;;14.53;6.17;;;7.50;99.90;;;;;;5032442;28;20431;-79
2022/11/26 00:17:45;;;;;;;11.27;5.50;;;7.50;99.90;;;;;;5046848;28;20224;-78
2022/11/26 00:20:11;;;;;;;8.83;5.10;;;7.50;99.90;;;;;;5052480;28;20891;-78
2022/11/26 00:22:41;;;;;;;9.63;6.53;;;7.50;99.90;;;;;;5052640;28;20746;-78
2022/11/26 00:25:18;;;;;;;14.87;6.07;;;7.40;99.90;;;;;;5051425;28;20224;-79
2022/11/26 00:27:43;;;;;;;12.73;4.93;;;7.50;99.90;;;;;;5035220;28;20942;-80
2022/11/26 00:30:17;;;;;;;10.83;5.40;;;7.40;99.90;;;;;;5055892;28;20409;-79
2022/11/26 00:32:43;;;;;;;12.93;5.13;;;7.50;99.90;;;;;;5038940;28;20210;-79
2022/11/26 00:35:09;;;;;;;14.83;5.57;;;7.50;99.90;;;;;;5037878;28;20984;-80
2022/11/26 00:37:47;;;;;;;11.97;5.70;;;7.50;99.90;;;;;;5055965;28;20175;-79
2022/11/26 00:40:25;;;;;;;11.20;5.20;;;7.60;99.90;;;;;;5056974;28;20167;-79
2022/11/26 00:42:51;;;;;;;11.70;4.30;;;7.60;99.90;;;;;;5056465;28;20425;-79
2022/11/26 00:45:23;;;;;;;9.40;5.57;;;7.60;99.90;;;;;;5039037;28;20436;-79
2022/11/26 00:47:49;;;;;;;13.83;5.43;;;7.60;99.90;;;;;;5031701;28;20477;-79
2022/11/26 00:50:17;;;;;;;15.37;6.17;;;7.70;99.90;;;;;;5034060;28;20410;-79
2022/11/26 00:52:43;;;;;;;14.40;6.37;;;7.60;99.90;;;;;;5015079;28;20442;-78
2022/11/26 00:55:33;;;;;;;8.87;4.73;;;7.60;99.90;;;;;;5032183;28;20406;-79
2022/11/26 00:57:59;;;;;;;18.93;6.67;;;7.60;99.90;;;;;;5014586;28;20466;-79
2022/11/26 01:00:31;;;;;;;13.30;5.97;;;7.60;99.90;;;;;;5027844;28;20543;-79
2022/11/26 01:02:58;;;;;;;12.73;5.20;;;7.60;99.90;;;;;;5034373;28;20429;-79
2022/11/26 01:05:28;;;;;;;12.17;5.80;;;7.60;99.90;;;;;;5033781;28;20771;-77
2022/11/26 01:08:01;;;;;;;16.30;6.80;;;7.60;99.90;;;;;;5051350;28;20401;-77
2022/11/26 01:10:28;;;;;;;16.43;4.53;;;7.60;99.90;;;;;;5051450;28;20416;-78
2022/11/26 01:12:54;;;;;;;16.00;6.43;;;7.60;99.90;;;;;;5050525;28;20437;-77
2022/11/26 01:15:23;;;;;;;10.30;5.70;;;7.60;99.90;;;;;;5050958;28;20770;-77
2022/11/26 01:17:50;;;;;;;12.73;5.93;;;7.60;99.90;;;;;;5051230;28;20199;-78
2022/11/26 01:20:24;;;;;;;14.30;6.40;;;7.60;99.90;;;;;;5033403;28;20413;-77
2022/11/26 01:22:51;;;;;;;23.60;8.43;;;7.50;99.90;;;;;;5051196;28;20782;-77
2022/11/26 01:25:17;;;;;;;16.67;6.27;;;7.50;99.90;;;;;;5051535;28;20405;-78
2022/11/26 01:27:43;;;;;;;12.57;6.20;;;7.50;99.90;;;;;;5059050;28;20404;-79
2022/11/26 01:30:30;;;;;;;16.93;5.47;;;7.60;99.90;;;;;;5041855;28;20417;-79
2022/11/26 01:32:56;;;;;;;8.53;5.07;;;7.60;99.90;;;;;;5041512;28;20468;-79
2022/11/26 01:35:22;;;;;;;18.43;6.50;;;7.60;99.90;;;;;;5032093;28;20417;-79
2022/11/26 01:37:48;;;;;;;13.23;6.23;;;7.50;99.90;;;;;;5022001;28;20458;-79
2022/11/26 01:40:44;;;;;;;9.70;5.43;;;7.40;99.90;;;;;;5053654;28;20183;-77
2022/11/26 01:43:21;;;;;;;15.23;5.60;;;7.40;99.90;;;;;;5034496;28;20422;-78
2022/11/26 01:45:46;;;;;;;14.80;5.90;;;7.30;99.90;;;;;;5034350;28;20760;-77
2022/11/26 01:48:25;;;;;;;15.53;6.00;;;7.20;99.90;;;;;;5034439;28;20407;-77
2022/11/26 01:50:59;;;;;;;11.50;6.13;;;7.20;99.90;;;;;;5049844;28;20171;-78
2022/11/26 01:54:05;;;;;;;21.03;7.00;;;7.10;99.90;;;;;;5034508;28;20433;-77
2022/11/26 01:56:39;;;;;;;19.83;6.87;;;7.10;99.90;;;;;;4979537;28;20442;-77
2022/11/26 01:59:07;;;;;;;11.67;6.43;;;7.10;99.90;;;;;;5028022;28;20493;-77
2022/11/26 02:01:33;;;;;;;16.50;6.00;;;7.10;99.90;;;;;;5034394;28;20399;-77
2022/11/26 02:04:23;;;;;;;14.70;7.57;;;7.20;99.90;;;;;;5034230;28;20409;-77
2022/11/26 02:06:50;;;;;;;20.37;6.73;;;7.20;99.90;;;;;;5035053;28;20395;-79
2022/11/26 02:09:17;;;;;;;14.20;5.50;;;7.30;99.90;;;;;;5045734;28;20413;-79
2022/11/26 02:11:43;;;;;;;19.97;7.00;;;7.30;99.90;;;;;;5036971;28;20767;-78
2022/11/26 02:14:16;;;;;;;17.73;5.70;;;7.30;99.90;;;;;;5056111;28;20489;-77
2022/11/26 02:17:08;;;;;;;17.00;6.97;;;7.40;99.90;;;;;;5041393;28;20421;-78
2022/11/26 02:20:07;;;;;;;14.73;6.70;;;7.30;99.90;;;;;;5055726;28;20445;-77
2022/11/26 02:22:48;;;;;;;11.73;6.13;;;7.30;99.90;;;;;;5016051;28;20480;-77
2022/11/26 02:25:17;;;;;;;12.40;5.20;;;7.30;99.90;;;;;;5033671;28;20406;-77
2022/11/26 02:28:15;;;;;;;17.57;6.37;;;7.30;99.90;;;;;;5015912;28;21006;-78
2022/11/26 02:31:12;;;;;;;9.27;4.93;;;7.20;99.90;;;;;;5033710;28;20406;-78
2022/11/26 02:33:49;;;;;;;10.90;5.60;;;7.20;99.90;;;;;;5040775;28;20579;-80
2022/11/26 02:36:24;;;;;;;17.40;5.77;;;7.20;99.90;;;;;;5040071;28;20425;-80
2022/11/26 02:38:49;;;;;;;10.37;6.90;;;7.20;99.90;;;;;;5037486;28;20460;-79
2022/11/26 02:41:15;;;;;;;12.50;5.87;;;7.20;99.90;;;;;;5053885;28;20909;-77
2022/11/26 02:43:41;;;;;;;35.13;6.53;;;7.20;99.90;;;;;;5053028;28;20205;-77
2022/11/26 02:46:15;;;;;;;12.13;6.03;;;7.10;99.90;;;;;;5035359;28;20195;-77
2022/11/26 02:48:46;;;;;;;21.33;6.93;;;7.10;99.90;;;;;;5035464;28;20513;-77
2022/11/26 02:51:17;;;;;;;14.37;5.77;;;7.00;99.90;;;;;;5053265;28;20412;-77
2022/11/26 02:53:44;;;;;;;10.83;5.90;;;6.90;99.90;;;;;;5054477;28;20474;-79
2022/11/26 02:56:14;;;;;;;16.53;6.37;;;6.70;99.90;;;;;;5037615;28;20430;-79
2022/11/26 02:58:40;;;;;;;16.33;5.20;;;6.60;99.90;;;;;;5039576;28;20449;-79
2022/11/26 03:01:11;;;;;;;14.83;6.10;;;6.50;99.90;;;;;;5039768;28;20467;-79
2022/11/26 03:03:45;;;;;;;10.57;5.97;;;6.40;99.90;;;;;;5035702;28;20259;-77
2022/11/26 03:06:13;;;;;;;18.43;6.90;;;6.40;99.90;;;;;;5052557;28;20412;-78
2022/11/26 03:08:38;;;;;;;15.80;6.80;;;6.40;99.90;;;;;;5052848;28;20453;-78
2022/11/26 03:11:04;;;;;;;16.00;6.20;;;6.30;99.90;;;;;;5052838;28;20449;-79
2022/11/26 03:13:30;;;;;;;14.03;5.90;;;6.20;99.90;;;;;;5038268;28;20218;-78
2022/11/26 03:15:55;;;;;;;13.03;6.63;;;6.10;99.90;;;;;;5038863;28;20410;-80
2022/11/26 03:18:21;;;;;;;23.23;6.77;;;6.10;99.90;;;;;;5015721;28;20191;-77
2022/11/26 03:20:46;;;;;;;11.83;6.63;;;6.00;99.90;;;;;;5032808;28;20167;-78
2022/11/26 03:23:12;;;;;;;18.00;5.10;;;6.00;99.90;;;;;;5015057;28;20592;-78
2022/11/26 03:25:38;;;;;;;21.00;5.57;;;5.90;99.90;;;;;;5032487;28;20552;-78
2022/11/26 03:28:04;;;;;;;22.40;5.47;;;5.90;99.90;;;;;;5032542;28;20269;-77
2022/11/26 03:30:30;;;;;;;12.37;5.40;;;5.80;99.90;;;;;;5032649;28;20265;-77
2022/11/26 03:32:55;;;;;;;15.70;5.63;;;5.70;99.90;;;;;;5014857;28;20434;-78
2022/11/26 03:35:21;;;;;;;15.63;4.70;;;5.60;99.90;;;;;;5032391;28;20192;-77
2022/11/26 03:37:47;;;;;;;18.70;5.80;;;5.60;99.90;;;;;;5032492;28;20588;-78
2022/11/26 03:40:15;;;;;;;21.70;7.03;;;5.50;99.90;;;;;;5041369;28;20171;-78
2022/11/26 03:42:41;;;;;;;20.33;6.73;;;5.50;99.90;;;;;;5057947;28;20205;-78
2022/11/26 03:45:07;;;;;;;17.67;5.63;;;5.50;99.90;;;;;;5057377;28;20440;-78
2022/11/26 03:47:33;;;;;;;11.90;5.90;;;5.50;99.90;;;;;;5039939;28;20402;-78
2022/11/26 03:49:58;;;;;;;9.97;4.57;;;5.50;99.90;;;;;;5057147;28;20505;-79
2022/11/26 03:52:24;;;;;;;15.07;6.00;;;5.40;99.90;;;;;;5030665;28;20282;-80
2022/11/26 03:54:49;;;;;;;11.50;5.90;;;5.40;99.90;;;;;;5034696;28;20175;-78
2022/11/26 03:57:15;;;;;;;18.23;5.50;;;5.40;99.90;;;;;;5052070;28;20167;-79
2022/11/26 03:59:41;;;;;;;10.67;4.87;;;5.40;99.90;;;;;;5052040;28;20194;-78
2022/11/26 04:02:07;;;;;;;15.00;6.27;;;5.40;99.90;;;;;;5052100;28;20947;-77
2022/11/26 04:04:33;;;;;;;16.13;4.90;;;5.40;99.90;;;;;;5051448;28;20177;-78
2022/11/26 04:06:59;;;;;;;13.90;4.43;;;5.40;99.90;;;;;;5034189;28;20542;-77
2022/11/26 04:09:25;;;;;;;7.30;4.37;;;5.40;99.90;;;;;;5052562;28;20450;-78
2022/11/26 04:11:51;;;;;;;8.20;4.30;;;5.40;99.90;;;;;;5052464;28;20954;-79
2022/11/26 04:14:16;;;;;;;12.40;5.20;;;5.50;99.90;;;;;;5055491;28;20205;-78
2022/11/26 04:16:42;;;;;;;8.80;4.20;;;5.50;99.90;;;;;;5042242;28;20179;-79
2022/11/26 04:19:07;;;;;;;21.97;5.73;;;5.60;99.90;;;;;;5037779;28;20274;-79
2022/11/26 04:21:33;;;;;;;8.33;4.40;;;5.60;99.90;;;;;;5019571;28;20693;-78
2022/11/26 04:23:58;;;;;;;13.20;5.20;;;5.50;99.90;;;;;;5037890;28;20164;-79
2022/11/26 04:26:24;;;;;;;17.83;3.93;;;5.50;99.90;;;;;;5037712;28;20199;-78
2022/11/26 04:28:49;;;;;;;21.97;7.20;;;5.50;99.90;;;;;;5054869;28;20185;-79
2022/11/26 04:31:16;;;;;;;9.50;3.87;;;5.40;99.90;;;;;;5039924;28;20218;-79
2022/11/26 04:33:42;;;;;;;9.23;4.60;;;5.50;99.90;;;;;;5058168;28;20187;-79
2022/11/26 04:36:08;;;;;;;7.33;4.23;;;5.50;99.90;;;;;;5039200;28;21044;-79
2022/11/26 04:38:34;;;;;;;16.00;4.80;;;5.40;99.90;;;;;;5058602;28;20445;-79
2022/11/26 04:40:59;;;;;;;7.00;4.00;;;5.40;99.90;;;;;;5022002;28;20414;-79
2022/11/26 04:43:25;;;;;;;9.03;3.83;;;5.30;99.90;;;;;;5052602;28;20198;-79
2022/11/26 04:45:50;;;;;;;8.10;4.40;;;5.20;99.90;;;;;;5019393;28;20406;-78
2022/11/26 04:48:16;;;;;;;11.63;4.07;;;5.10;99.90;;;;;;5037784;28;20176;-79
2022/11/26 04:50:41;;;;;;;12.43;3.83;;;5.10;99.90;;;;;;5017794;28;20182;-78
2022/11/26 04:53:07;;;;;;;6.00;4.00;;;5.00;99.90;;;;;;5051576;28;20194;-79
2022/11/26 04:55:33;;;;;;;8.53;3.80;;;5.00;99.90;;;;;;5052489;28;20252;-78
2022/11/26 04:57:58;;;;;;;5.50;3.80;;;5.00;99.90;;;;;;5034711;28;20461;-78
2022/11/26 05:00:24;;;;;;;12.37;4.60;;;5.00;99.90;;;;;;5051554;28;20657;-78
2022/11/26 05:02:49;;;;;;;7.70;3.90;;;5.00;99.90;;;;;;5038608;28;20201;-79
2022/11/26 05:05:15;;;;;;;5.73;4.03;;;5.10;99.90;;;;;;5038261;28;20250;-78
2022/11/26 05:07:41;;;;;;;8.47;4.07;;;5.20;99.90;;;;;;5056454;28;20160;-78
2022/11/26 05:10:07;;;;;;;10.10;4.03;;;5.30;99.90;;;;;;5045157;28;20262;-78
2022/11/26 05:12:33;;;;;;;6.90;3.63;;;5.30;99.90;;;;;;5036738;28;20210;-79
2022/11/26 05:14:59;;;;;;;6.57;4.50;;;5.40;99.90;;;;;;5040346;28;21117;-79
2022/11/26 05:17:24;;;;;;;8.23;4.20;;;5.40;99.90;;;;;;5042759;28;20195;-79
2022/11/26 05:19:50;;;;;;;21.80;3.90;;;5.30;99.90;;;;;;5041081;28;20208;-79
2022/11/26 05:22:15;;;;;;;5.17;3.43;;;5.30;99.90;;;;;;5023653;28;20286;-78
2022/11/26 05:24:41;;;;;;;10.93;4.50;;;5.40;99.90;;;;;;5040163;28;22223;-80
2022/11/26 05:27:06;;;;;;;12.43;4.77;;;5.40;99.90;;;;;;5038779;28;20225;-80
2022/11/26 05:29:32;;;;;;;11.30;4.67;;;5.40;99.90;;;;;;5021074;28;20708;-80
2022/11/26 05:31:57;;;;;;;6.67;3.13;;;5.40;99.90;;;;;;5020876;28;20202;-80
2022/11/26 05:34:23;;;;;;;17.53;3.87;;;5.40;99.90;;;;;;5038469;28;20828;-78
2022/11/26 05:36:48;;;;;;;9.03;4.00;;;5.30;99.90;;;;;;5036681;28;20168;-77
2022/11/26 05:39:15;;;;;;;4.60;2.90;;;5.30;99.90;;;;;;5036663;28;20281;-77
2022/11/26 05:41:40;;;;;;;5.17;4.77;;;5.20;99.90;;;;;;5054581;28;20172;-77
2022/11/26 05:44:06;;;;;;;12.87;3.90;;;5.10;99.90;;;;;;5054488;28;20768;-79
2022/11/26 05:46:32;;;;;;;10.00;3.80;;;5.10;99.90;;;;;;5054364;28;20212;-77
2022/11/26 05:48:57;;;;;;;11.13;3.83;;;5.10;99.90;;;;;;5050546;28;20813;-78
2022/11/26 05:51:23;;;;;;;9.07;4.07;;;5.10;99.90;;;;;;5016918;28;20179;-78
2022/11/26 05:53:48;;;;;;;13.80;4.77;;;5.00;99.90;;;;;;5035506;28;20187;-78
2022/11/26 05:56:14;;;;;;;11.70;4.27;;;4.90;99.90;;;;;;5017278;28;20536;-77
2022/11/26 05:58:41;;;;;;;9.10;4.60;;;4.90;99.90;;;;;;5034313;28;20203;-77
2022/11/26 06:01:08;;;;;;;6.63;3.50;;;4.80;99.90;;;;;;5026341;28;20190;-77
2022/11/26 06:03:34;;;;;;;7.10;3.70;;;4.80;99.90;;;;;;5033191;28;20798;-80
2022/11/26 06:06:00;;;;;;;16.43;4.43;;;4.70;99.90;;;;;;5038640;28;20476;-80
2022/11/26 06:08:26;;;;;;;11.73;4.70;;;4.60;99.90;;;;;;5037659;28;20418;-78
2022/11/26 06:10:51;;;;;;;14.83;3.93;;;4.60;99.90;;;;;;5016212;28;20422;-78
2022/11/26 06:13:17;;;;;;;14.83;4.40;;;4.50;99.90;;;;;;5037724;28;20194;-77
2022/11/26 06:15:42;;;;;;;15.43;4.73;;;4.50;99.90;;;;;;5022695;28;20184;-79
2022/11/26 06:18:08;;;;;;;13.00;4.07;;;4.50;99.90;;;;;;5040714;28;20199;-79
2022/11/26 06:20:33;;;;;;;8.90;4.00;;;4.60;99.90;;;;;;5022469;28;20186;-78
2022/11/26 06:22:59;;;;;;;14.77;3.63;;;4.50;99.90;;;;;;5030972;28;20198;-78
2022/11/26 06:25:24;;;;;;;6.80;3.20;;;4.60;99.90;;;;;;5060203;28;20587;-79
2022/11/26 06:27:51;;;;;;;14.10;5.00;;;4.60;99.90;;;;;;5044231;28;20553;-79
2022/11/26 06:30:17;;;;;;;4.10;2.77;;;4.60;99.90;;;;;;5039987;28;20194;-78
2022/11/26 06:32:42;;;;;;;9.37;2.87;;;4.60;99.90;;;;;;5059689;28;20468;-78
2022/11/26 06:35:08;;;;;;;9.67;4.07;;;4.60;99.90;;;;;;5035645;28;20422;-78
2022/11/26 06:37:34;;;;;;;9.70;4.20;;;4.50;99.90;;;;;;5020055;28;20168;-77
2022/11/26 06:40:00;;;;;;;8.73;4.30;;;4.60;99.90;;;;;;5033613;28;20457;-79
2022/11/26 06:42:25;;;;;;;28.63;5.20;;;4.60;99.90;;;;;;5019850;28;20279;-80
2022/11/26 06:44:50;;;;;;;9.00;2.70;;;4.60;99.90;;;;;;5025038;28;20167;-79
2022/11/26 06:47:16;;;;;;;14.03;3.53;;;4.50;99.90;;;;;;5033697;28;20178;-78
2022/11/26 06:49:42;;;;;;;9.23;2.80;;;4.40;99.90;;;;;;5046261;28;20175;-78
2022/11/26 06:52:07;;;;;;;13.93;2.63;;;4.40;99.90;;;;;;5063432;28;20190;-79
2022/11/26 06:54:33;;;;;;;6.27;4.10;;;4.50;99.90;;;;;;5044169;28;20174;-79
2022/11/26 06:56:58;;;;;;;7.30;3.67;;;4.60;99.90;;;;;;5043209;28;20183;-79
2022/11/26 06:59:24;;;;;;;12.60;4.80;;;4.60;99.90;;;;;;5030992;28;20210;-77
2022/11/26 07:01:50;;;;;;;6.53;2.70;;;4.60;99.90;;;;;;5026312;28;20187;-79
2022/11/26 07:04:15;;;;;;;9.03;3.67;;;4.70;99.90;;;;;;5043804;28;20176;-78
2022/11/26 07:06:43;;;;;;;5.13;3.07;;;4.80;99.90;;;;;;5025443;28;20175;-79
2022/11/26 07:09:10;;;;;;;14.43;3.30;;;4.80;99.90;;;;;;5034419;28;20661;-78
2022/11/26 07:11:36;;;;;;;7.70;3.90;;;4.80;99.90;;;;;;5049180;28;20851;-78
2022/11/26 07:14:02;;;;;;;13.20;3.97;;;4.90;99.90;;;;;;5056909;28;20422;-79
2022/11/26 07:16:28;;;;;;;5.63;2.70;;;4.90;99.90;;;;;;5033034;28;20993;-78
2022/11/26 07:18:55;;;;;;;20.03;4.03;;;4.80;99.90;;;;;;5060204;28;20555;-79
2022/11/26 07:21:22;;;;;;;10.87;3.60;;;4.70;99.90;;;;;;5039361;28;20173;-79
2022/11/26 07:23:48;;;;;;;6.27;3.60;;;4.70;99.90;;;;;;5059678;28;20550;-78
2022/11/26 07:26:14;;;;;;;14.40;3.60;;;4.70;99.90;;;;;;5060706;28;20410;-79
2022/11/26 07:28:40;;;;;;;6.87;3.43;;;4.70;99.90;;;;;;5047479;28;20454;-79
2022/11/26 07:31:11;;;;;;;8.37;3.23;;;4.70;99.90;;;;;;5021676;28;20433;-80
2022/11/26 07:33:37;;;;;;;8.67;3.70;;;4.80;99.90;;;;;;5032710;28;20745;-80
2022/11/26 07:36:05;;;;;;;20.77;4.50;;;4.80;99.90;;;;;;5038754;28;20417;-80
2022/11/26 07:38:31;;;;;;;15.87;3.37;;;4.80;99.90;;;;;;5040156;28;20488;-78
2022/11/26 07:41:05;;;;;;;6.87;2.60;;;4.80;99.90;;;;;;5042440;28;20492;-79
2022/11/26 07:43:33;;;;;;;18.40;4.83;;;4.80;99.90;;;;;;5027735;28;20438;-80
2022/11/26 07:46:04;;;;;;;6.13;3.50;;;4.90;99.90;;;;;;5021327;28;20418;-79
2022/11/26 07:48:31;;;;;;;6.40;3.10;;;5.10;99.90;;;;;;5036065;28;20449;-77
2022/11/26 07:50:57;;;;;;;8.07;4.07;;;5.20;99.90;;;;;;5032069;28;20467;-77
2022/11/26 07:53:23;;;;;;;9.77;4.00;;;5.30;99.90;;;;;;5015480;28;20524;-78
2022/11/26 07:55:49;;;;;;;5.80;3.27;;;5.40;99.90;;;;;;5028161;28;20950;-79
2022/11/26 07:58:14;;;;;;;18.83;5.10;;;5.50;99.90;;;;;;5037332;28;20209;-78
2022/11/26 08:00:40;;;;;;;12.40;3.90;;;5.90;99.90;;;;;;5057727;28;20167;-79
2022/11/26 08:03:07;;;;;;;8.30;3.50;;;6.40;99.90;;;;;;5036965;28;20256;-79
2022/11/26 08:05:32;;;;;;;11.13;4.20;;;6.70;99.90;;;;;;5053560;28;20167;-79
2022/11/26 08:07:58;;;;;;;5.33;3.50;;;7.10;99.90;;;;;;5043632;28;20500;-78
2022/11/26 08:10:23;;;;;;;7.80;3.67;;;7.40;99.90;;;;;;5034984;28;20171;-77
2022/11/26 08:12:49;;;;;;;8.93;3.80;;;7.60;99.90;;;;;;5032938;28;20250;-76
2022/11/26 08:15:14;;;;;;;8.57;4.70;;;7.80;99.90;;;;;;5033827;28;20703;-78
2022/11/26 08:17:40;;;;;;;17.53;4.33;;;8.00;99.90;;;;;;5017861;28;20249;-79
2022/11/26 08:20:06;;;;;;;9.93;4.10;;;8.20;99.90;;;;;;5028540;28;20204;-77
2022/11/26 08:22:32;;;;;;;11.03;3.27;;;8.50;99.90;;;;;;5052142;28;20260;-79
2022/11/26 08:24:57;;;;;;;8.00;3.20;;;8.70;99.90;;;;;;5038265;28;20421;-77
2022/11/26 08:27:23;;;;;;;4.97;3.67;;;8.60;99.90;;;;;;5052881;28;20561;-79
2022/11/26 08:29:48;;;;;;;7.93;4.00;;;8.50;99.90;;;;;;5051842;28;20170;-77
2022/11/26 08:32:14;;;;;;;3.80;3.20;;;8.60;99.90;;;;;;5021587;28;20218;-78
2022/11/26 08:34:39;;;;;;;4.70;3.20;;;8.80;99.90;;;;;;5033805;28;20170;-77
2022/11/26 08:37:05;;;;;;;5.30;3.07;;;9.00;99.90;;;;;;5037258;28;20167;-77
2022/11/26 08:39:30;;;;;;;6.60;2.90;;;9.50;99.90;;;;;;5037500;28;20203;-76
2022/11/26 08:41:56;;;;;;;7.23;3.00;;;9.80;99.90;;;;;;5038126;28;20191;-76
2022/11/26 08:44:21;;;;;;;3.30;2.63;;;10.00;99.90;;;;;;5049692;28;20632;-77
2022/11/26 08:46:47;;;;;;;8.73;3.40;;;10.20;99.90;;;;;;5039569;28;20179;-78
2022/11/26 08:49:13;;;;;;;7.10;3.13;;;10.50;99.90;;;;;;5039116;28;20170;-78
2022/11/26 08:51:40;;;;;;;7.83;3.53;;;10.80;99.90;;;;;;5039405;28;20179;-79
2022/11/26 08:54:05;;;;;;;10.80;4.00;;;11.20;99.90;;;;;;5039291;28;20818;-79
2022/11/26 08:56:31;;;;;;;4.10;3.50;;;11.50;99.90;;;;;;5042711;28;20425;-78
2022/11/26 08:58:57;;;;;;;7.50;3.47;;;11.70;99.90;;;;;;5019736;28;20199;-79
2022/11/26 09:01:26;;;;;;;4.03;2.83;;;12.10;99.90;;;;;;5026891;28;20769;-80
2022/11/26 09:03:53;;;;;;;9.50;3.30;;;12.10;99.90;;;;;;5024825;28;20195;-80
2022/11/26 09:06:20;;;;;;;5.90;3.53;;;12.60;99.90;;;;;;5039700;28;20414;-80
2022/11/26 09:11:31;;;;;;;6.63;3.10;;;12.80;99.90;;;;;;5039652;28;20921;-79
2022/11/26 09:13:57;;;;;;;10.40;3.17;;;12.60;99.90;;;;;;5039300;28;20406;-79
2022/11/26 09:16:24;;;;;;;7.27;2.97;;;12.70;99.90;;;;;;5020885;28;20467;-79
2022/11/26 09:18:50;;;;;;;3.90;2.40;;;12.70;99.90;;;;;;5049904;28;20456;-79
2022/11/26 09:21:16;;;;;;;4.93;2.63;;;12.70;99.90;;;;;;5055966;28;20409;-79
2022/11/26 09:23:41;;;;;;;6.60;3.10;;;12.60;99.90;;;;;;5055458;28;20504;-79
2022/11/26 09:26:07;;;;;;;5.13;2.47;;;12.60;99.90;;;;;;5055146;28;20182;-79
2022/11/26 09:28:33;;;;;;;15.17;2.53;;;12.60;99.90;;;;;;5055538;28;20175;-79
2022/11/26 09:31:00;;;;;;;4.33;2.90;;;12.40;99.90;;;;;;5040052;28;20931;-78
2022/11/26 09:33:26;;;;;;;7.57;3.60;;;12.20;99.90;;;;;;5035381;28;20183;-78
2022/11/26 09:35:52;;;;;;;5.50;2.90;;;12.30;99.90;;;;;;5034884;28;20919;-78
2022/11/26 09:38:18;;;;;;;5.30;3.20;;;12.40;99.90;;;;;;5034960;28;20457;-78
2022/11/26 09:40:53;;;;;;;9.97;3.40;;;12.40;99.90;;;;;;5034937;28;20172;-79
2022/11/26 09:43:50;;;;;;;4.83;2.23;;;12.40;99.90;;;;;;5035913;28;20583;-79
2022/11/26 09:46:19;;;;;;;6.50;2.40;;;12.60;99.90;;;;;;5033938;28;20493;-78
2022/11/26 09:48:45;;;;;;;5.30;2.93;;;12.70;99.90;;;;;;5035174;28;20469;-79
2022/11/26 09:51:13;;;;;;;7.10;3.03;;;12.50;99.90;;;;;;5035027;28;20438;-78
2022/11/26 09:53:44;;;;;;;5.37;2.73;;;12.60;99.90;;;;;;5019219;28;20256;-79
2022/11/26 09:56:15;;;;;;;7.07;2.67;;;12.30;99.90;;;;;;5054791;28;20431;-79
2022/11/26 09:58:56;;;;;;;4.23;2.20;;;12.20;99.90;;;;;;5036887;28;20457;-78
2022/11/26 10:01:23;;;;;;;7.07;2.27;;;12.00;99.90;;;;;;5054853;28;20436;-79
2022/11/26 10:03:50;;;;;;;12.50;2.77;;;11.90;99.90;;;;;;5036857;28;20429;-78
2022/11/26 10:06:50;;;;;;;6.83;3.80;;;11.90;99.90;;;;;;5036314;28;20835;-78
2022/11/26 10:09:31;;;;;;;5.70;2.87;;;12.10;99.90;;;;;;5054591;28;21009;-78
2022/11/26 10:12:11;;;;;;;9.57;2.70;;;12.30;99.90;;;;;;5054587;28;20421;-78
2022/11/26 10:15:12;;;;;;;11.23;2.40;;;12.30;99.90;;;;;;5054177;28;20432;-78
2022/11/26 10:18:04;;;;;;;7.20;2.60;;;12.50;99.90;;;;;;5034883;28;20413;-78
2022/11/26 10:20:44;;;;;;;5.67;2.57;;;12.70;99.90;;;;;;5034542;28;20473;-78
2022/11/26 10:23:12;;;;;;;2.40;1.73;;;12.90;99.90;;;;;;5016965;28;20433;-78
2022/11/26 10:25:47;;;;;;;7.20;3.00;;;13.10;99.90;;;;;;5038751;28;20845;-79
2022/11/26 10:28:25;;;;;;;7.03;2.43;;;13.30;99.90;;;;;;5036255;28;20417;-79
2022/11/26 10:31:04;;;;;;;5.90;2.30;;;13.10;99.90;;;;;;5054193;28;20944;-79
2022/11/26 10:33:39;;;;;;;9.87;2.80;;;13.30;99.90;;;;;;5054010;28;20795;-78
2022/11/26 10:36:13;;;;;;;4.57;2.13;;;13.50;99.90;;;;;;5045543;28;20422;-79
2022/11/26 10:38:39;;;;;;;11.10;2.53;;;13.70;99.90;;;;;;5034346;28;20479;-79
2022/11/26 10:41:04;;;;;;;6.50;2.90;;;14.30;99.90;;;;;;5034159;28;20402;-79
2022/11/26 10:43:31;;;;;;;5.00;1.70;;;14.90;99.90;;;;;;5033922;28;20245;-78
2022/11/26 10:45:56;;;;;;;11.17;2.70;;;15.30;99.90;;;;;;5015780;28;20242;-78
2022/11/26 10:48:32;;;;;;;8.93;3.33;;;15.40;99.90;;;;;;5026292;28;20449;-78
2022/11/26 10:51:05;;;;;;;2.20;1.57;;;14.60;99.90;;;;;;5053838;28;20508;-79
2022/11/26 10:53:55;;;;;;;8.23;2.23;;;14.00;99.90;;;;;;5054084;28;20429;-79
2022/11/26 10:56:27;;;;;;;4.07;1.77;;;13.50;99.90;;;;;;5053540;28;20409;-79
2022/11/26 10:59:02;;;;;;;5.67;2.93;;;13.00;99.90;;;;;;5034791;28;20457;-78
2022/11/26 11:01:39;;;;;;;5.70;2.60;;;12.70;99.90;;;;;;5017323;28;20414;-79
2022/11/26 11:04:23;;;;;;;6.80;2.87;;;12.40;99.90;;;;;;5033946;28;20477;-79
2022/11/26 11:06:48;;;;;;;6.53;1.93;;;12.30;99.90;;;;;;5015811;28;20406;-79
2022/11/26 11:09:35;;;;;;;7.10;2.80;;;12.20;99.90;;;;;;5033620;28;20891;-80
2022/11/26 11:12:10;;;;;;;4.10;2.33;;;12.10;99.90;;;;;;5033495;28;20687;-78
2022/11/26 11:14:36;;;;;;;4.13;2.50;;;12.00;99.90;;;;;;5033135;28;20832;-79
2022/11/26 11:17:03;;;;;;;4.67;2.57;;;11.90;99.90;;;;;;5015488;28;21128;-78
2022/11/26 11:19:29;;;;;;;10.30;2.60;;;11.90;99.90;;;;;;5033257;28;20461;-78
2022/11/26 11:21:56;;;;;;;4.80;2.07;;;12.00;99.90;;;;;;5033241;28;20414;-78
2022/11/26 11:24:28;;;;;;;3.50;2.07;;;12.00;99.90;;;;;;5032977;28;20482;-78
2022/11/26 11:27:01;;;;;;;5.30;2.30;;;12.00;99.90;;;;;;5033254;28;20399;-78
2022/11/26 11:29:31;;;;;;;5.83;3.23;;;12.20;99.90;;;;;;5033932;28;20414;-79
2022/11/26 11:31:58;;;;;;;5.00;2.40;;;12.20;99.90;;;;;;5033491;28;20539;-79
2022/11/26 11:34:42;;;;;;;3.60;2.07;;;12.40;99.90;;;;;;5033420;28;20498;-78
2022/11/26 11:37:16;;;;;;;4.77;2.67;;;12.60;99.90;;;;;;5033381;28;20485;-79
2022/11/26 11:39:42;;;;;;;8.50;2.63;;;12.50;99.90;;;;;;5032980;28;20955;-79
2022/11/26 11:42:27;;;;;;;6.40;2.17;;;12.20;99.90;;;;;;5033237;28;20507;-78
2022/11/26 11:44:52;;;;;;;3.90;2.37;;;12.30;99.90;;;;;;5033202;28;20759;-79
2022/11/26 11:47:31;;;;;;;3.87;1.70;;;12.30;99.90;;;;;;5033035;28;20399;-78
2022/11/26 11:50:28;;;;;;;5.10;2.07;;;12.00;99.90;;;;;;5033218;28;20171;-79
2022/11/26 11:53:02;;;;;;;5.33;2.47;;;12.10;99.90;;;;;;5032760;28;20931;-79
2022/11/26 11:55:30;;;;;;;4.17;2.00;;;12.20;99.90;;;;;;5032576;28;20894;-79
2022/11/26 11:58:24;;;;;;;6.80;2.20;;;12.20;99.90;;;;;;5032480;28;20911;-78
2022/11/26 12:00:52;;;;;;;3.97;2.03;;;12.10;99.90;;;;;;5015019;28;20517;-79
2022/11/26 12:03:52;;;;;;;5.93;2.23;;;12.20;99.90;;;;;;5032541;28;20446;-78
2022/11/26 12:06:22;;;;;;;4.43;1.80;;;12.20;99.90;;;;;;5014761;28;20426;-79
2022/11/26 12:09:12;;;;;;;5.97;2.03;;;12.20;99.90;;;;;;5032499;28;20923;-79
2022/11/26 12:11:52;;;;;;;5.40;2.37;;;12.20;99.90;;;;;;5032620;28;20403;-78
2022/11/26 12:14:27;;;;;;;4.40;2.40;;;12.10;99.90;;;;;;5032290;28;20469;-78
2022/11/26 12:17:00;;;;;;;7.40;2.20;;;12.20;99.90;;;;;;5032632;28;20463;-79
2022/11/26 12:19:56;;;;;;;4.97;2.60;;;12.10;99.90;;;;;;5032546;28;20636;-78
2022/11/26 12:22:27;;;;;;;6.20;1.83;;;12.30;99.90;;;;;;5032343;28;20557;-78
2022/11/26 12:25:01;;;;;;;7.20;2.23;;;12.50;99.90;;;;;;5032417;28;20891;-79
2022/11/26 12:27:41;;;;;;;7.90;2.97;;;12.70;99.90;;;;;;5014710;28;20843;-78
2022/11/26 12:30:20;;;;;;;2.80;1.83;;;12.70;99.90;;;;;;5014557;28;20418;-78
2022/11/26 12:33:26;;;;;;;3.57;1.73;;;12.60;99.90;;;;;;5032215;28;20985;-78
2022/11/26 12:35:57;;;;;;;6.23;3.40;;;12.60;99.90;;;;;;5032066;28;20493;-78
2022/11/26 12:38:37;;;;;;;6.20;2.37;;;12.70;99.90;;;;;;5032421;28;20462;-78
2022/11/26 12:41:13;;;;;;;3.70;1.57;;;12.60;99.90;;;;;;5014869;28;20422;-79
2022/11/26 12:43:59;;;;;;;6.50;2.23;;;12.60;99.90;;;;;;5031948;28;20990;-79
2022/11/26 12:46:37;;;;;;;4.40;1.83;;;12.70;99.90;;;;;;5031874;28;20403;-79
2022/11/26 12:49:19;;;;;;;7.03;1.93;;;12.70;99.90;;;;;;5014622;28;20433;-79
2022/11/26 12:51:55;;;;;;;4.83;2.47;;;12.70;99.90;;;;;;5014135;28;20433;-78
2022/11/26 12:54:35;;;;;;;4.67;2.00;;;12.80;99.90;;;;;;5031611;28;20418;-78
2022/11/26 12:57:19;;;;;;;6.27;2.00;;;12.70;99.90;;;;;;5014040;28;20422;-78
2022/11/26 12:59:55;;;;;;;5.83;2.07;;;12.70;99.90;;;;;;5013856;28;20469;-78
2022/11/26 13:02:31;;;;;;;2.60;1.80;;;12.40;99.90;;;;;;5014103;28;20560;-79
2022/11/26 13:04:58;;;;;;;5.93;2.40;;;12.40;99.90;;;;;;5013813;28;20536;-79